Time,TemperatureF,DewpointF,PressureIn,WindDirection,WindDirectionDegrees,WindSpeedMPH,WindSpeedGustMPH,Humidity,HourlyPrecipIn,Conditions,Clouds,dailyrainin,SoftwareType,DateUTC
2014-09-22 00:00:00,66.4,50.2,30.04,North,0,0.0,1.0,56,0.00,FEW,,0.00,WeatherDisplay:10.37,2014-09-21 22:00:00,
2014-09-22 00:14:00,66.7,50.1,30.03,North,0,0.0,4.0,55,0.00,FEW,,0.00,WeatherDisplay:10.37,2014-09-21 22:14:00,
2014-09-22 00:30:00,66.9,50.2,30.03,North,0,0.0,0.0,55,0.00,FEW,,0.00,WeatherDisplay:10.37,2014-09-21 22:30:00,
2014-09-22 00:44:00,66.6,50.4,30.02,NNE,14,2.0,6.0,56,0.00,FEW,,0.00,WeatherDisplay:10.37,2014-09-21 22:44:00,
2014-09-22 01:00:00,66.8,50.1,30.02,NNE,22,0.0,7.0,55,0.00,SCT,,0.00,WeatherDisplay:10.37,2014-09-21 23:00:00,
2014-09-22 01:14:00,67.6,49.9,30.01,NNE,22,0.0,0.0,53,0.00,SCT,,0.00,WeatherDisplay:10.37,2014-09-21 23:14:00,
2014-09-22 01:30:00,67.8,49.0,30.01,NNE,22,0.0,0.0,51,0.00,SCT,,0.00,WeatherDisplay:10.37,2014-09-21 23:30:00,
2014-09-22 01:44:00,67.6,48.9,30.01,NNE,22,0.0,0.0,51,0.00,SCT,,0.00,WeatherDisplay:10.37,2014-09-21 23:44:00,
2014-09-22 02:00:00,67.4,49.1,30.01,NNE,22,0.0,0.0,52,0.00,OVC,,0.00,WeatherDisplay:10.37,2014-09-22 00:00:00,
2014-09-22 02:14:00,67.6,49.9,30.01,NNE,22,0.0,0.0,53,0.00,OVC,,0.00,WeatherDisplay:10.37,2014-09-22 00:14:00,
2014-09-22 02:30:00,67.6,49.9,30.01,NNE,22,0.0,0.0,53,0.00,OVC,,0.00,WeatherDisplay:10.37,2014-09-22 00:30:00,
2014-09-22 02:44:00,67.3,50.1,30.00,NNE,22,0.0,0.0,54,0.00,OVC,,0.00,WeatherDisplay:10.37,2014-09-22 00:44:00,
2014-09-22 03:00:00,67.6,50.9,30.00,NNE,22,0.0,0.0,55,0.00,SCT,,0.00,WeatherDisplay:10.37,2014-09-22 01:00:00,
2014-09-22 03:14:00,67.3,50.6,30.00,NNE,22,0.0,0.0,55,0.00,SCT,,0.00,WeatherDisplay:10.37,2014-09-22 01:14:00,
2014-09-22 03:30:00,67.1,50.4,30.00,NNE,22,0.0,0.0,55,0.00,SCT,,0.00,WeatherDisplay:10.37,2014-09-22 01:30:00,
2014-09-22 03:44:00,67.3,50.6,29.99,NNE,22,0.0,0.0,55,0.00,SCT,,0.00,WeatherDisplay:10.37,2014-09-22 01:44:00,
2014-09-22 04:00:00,67.1,50.4,29.98,NNE,22,0.0,0.0,55,0.00,CLR,,0.00,WeatherDisplay:10.37,2014-09-22 02:00:00,
2014-09-22 04:14:00,66.7,50.1,29.98,NNE,22,0.0,0.0,55,0.00,CLR,,0.00,WeatherDisplay:10.37,2014-09-22 02:14:00,
2014-09-22 04:30:00,66.7,50.1,29.97,NNE,22,0.0,5.0,55,0.00,CLR,,0.00,WeatherDisplay:10.37,2014-09-22 02:30:00,
2014-09-22 04:44:00,67.3,50.1,29.97,NNE,22,0.0,0.0,54,0.00,CLR,,0.00,WeatherDisplay:10.37,2014-09-22 02:44:00,
2014-09-22 05:00:00,67.3,50.1,29.97,NNE,22,0.0,0.0,54,0.00,SCT,,0.00,WeatherDisplay:10.37,2014-09-22 03:00:00,
2014-09-22 05:14:00,67.5,50.2,29.95,NNE,22,0.0,0.0,54,0.00,SCT,,0.00,WeatherDisplay:10.37,2014-09-22 03:14:00,
2014-09-22 05:30:00,67.3,50.1,29.96,NNE,22,0.0,0.0,54,0.00,SCT,,0.00,WeatherDisplay:10.37,2014-09-22 03:30:00,
2014-09-22 05:44:00,66.7,49.6,29.95,NNE,22,0.0,2.0,54,0.00,SCT,,0.00,WeatherDisplay:10.37,2014-09-22 03:44:00,
2014-09-22 06:00:00,66.9,49.7,29.95,NNE,22,0.0,2.0,54,0.00,CLR,,0.00,WeatherDisplay:10.37,2014-09-22 04:00:00,
2014-09-22 06:14:00,66.9,49.7,29.95,NNE,22,0.0,0.0,54,0.00,CLR,,0.00,WeatherDisplay:10.37,2014-09-22 04:14:00,
2014-09-22 06:30:00,66.1,49.5,29.95,NNE,22,0.0,0.0,55,0.00,CLR,,0.00,WeatherDisplay:10.37,2014-09-22 04:30:00,
2014-09-22 06:44:00,65.5,49.8,29.95,NNE,22,2.0,6.0,57,0.00,CLR,,0.00,WeatherDisplay:10.37,2014-09-22 04:44:00,
2014-09-22 07:00:00,65.3,49.7,29.95,NNE,22,0.0,3.0,57,0.00,CLR,,0.00,WeatherDisplay:10.37,2014-09-22 05:00:00,
2014-09-22 07:14:00,64.9,49.8,29.95,NNE,22,0.0,0.0,58,0.00,CLR,,0.00,WeatherDisplay:10.37,2014-09-22 05:14:00,
2014-09-22 07:30:00,64.2,49.1,29.95,NNE,22,5.0,8.0,58,0.00,CLR,,0.00,WeatherDisplay:10.37,2014-09-22 05:30:00,
2014-09-22 07:44:00,64.0,49.4,29.95,NNE,22,0.0,9.0,59,0.00,CLR,,0.00,WeatherDisplay:10.37,2014-09-22 05:44:00,
2014-09-22 08:00:00,64.2,49.6,29.95,NNE,22,0.0,0.0,59,0.00,SCT,,0.00,WeatherDisplay:10.37,2014-09-22 06:00:00,
2014-09-22 08:14:00,64.2,49.6,29.95,NNE,22,2.0,3.0,59,0.00,SCT,,0.00,WeatherDisplay:10.37,2014-09-22 06:14:00,
2014-09-22 08:30:00,64.2,49.6,29.95,NNE,22,0.0,2.0,59,0.00,SCT,,0.00,WeatherDisplay:10.37,2014-09-22 06:30:00,
2014-09-22 08:44:00,64.2,49.6,29.96,NNE,22,0.0,0.0,59,0.00,SCT,,0.00,WeatherDisplay:10.37,2014-09-22 06:44:00,
2014-09-22 09:00:00,64.4,50.3,29.97,NNE,22,0.0,0.0,60,0.00,SCT,,0.00,WeatherDisplay:10.37,2014-09-22 07:00:00,
2014-09-22 09:14:00,64.9,50.7,29.97,NNE,22,2.0,5.0,60,0.00,SCT,,0.00,WeatherDisplay:10.37,2014-09-22 07:14:00,
2014-09-22 09:30:00,67.2,51.9,29.97,NNE,22,0.0,3.0,58,0.00,SCT,,0.00,WeatherDisplay:10.37,2014-09-22 07:30:00,
2014-09-22 09:44:00,69.8,52.9,29.97,NNE,22,1.0,5.0,55,0.00,SCT,,0.00,WeatherDisplay:10.37,2014-09-22 07:44:00,
2014-09-22 10:00:00,71.6,53.1,29.97,NNE,22,0.0,4.0,52,0.00,FEW,,0.00,WeatherDisplay:10.37,2014-09-22 08:00:00,
2014-09-22 10:14:00,73.0,53.3,29.98,NNE,22,0.0,4.0,50,0.00,FEW,,0.00,WeatherDisplay:10.37,2014-09-22 08:14:00,
2014-09-22 10:30:00,73.9,53.5,29.99,South,180,0.0,4.0,49,0.00,FEW,,0.00,WeatherDisplay:10.37,2014-09-22 08:30:00,
2014-09-22 10:44:00,75.0,54.0,29.99,South,180,0.0,0.0,48,0.00,FEW,,0.00,WeatherDisplay:10.37,2014-09-22 08:44:00,
2014-09-22 11:00:00,76.3,54.0,29.99,South,180,0.0,4.0,46,0.00,FEW,,0.00,WeatherDisplay:10.37,2014-09-22 09:00:00,
2014-09-22 11:14:00,76.8,53.9,30.00,South,184,0.0,7.0,45,0.00,FEW,,0.00,WeatherDisplay:10.37,2014-09-22 09:14:00,
2014-09-22 11:30:00,77.4,53.7,30.00,South,182,1.0,9.0,44,0.00,FEW,,0.00,WeatherDisplay:10.37,2014-09-22 09:30:00,
2014-09-22 11:44:00,77.5,54.5,30.00,South,185,1.0,8.0,45,0.00,FEW,,0.00,WeatherDisplay:10.37,2014-09-22 09:44:00,
2014-09-22 12:00:00,77.8,54.7,30.00,SSW,193,1.0,7.0,45,0.00,FEW,,0.00,WeatherDisplay:10.37,2014-09-22 10:00:00,
2014-09-22 12:14:00,78.1,55.0,30.00,South,186,0.0,11.0,45,0.00,FEW,,0.00,WeatherDisplay:10.37,2014-09-22 10:14:00,
2014-09-22 12:30:00,78.4,55.3,30.00,South,186,2.0,9.0,45,0.00,FEW,,0.00,WeatherDisplay:10.37,2014-09-22 10:30:00,
2014-09-22 12:44:00,78.8,55.0,29.99,South,191,2.0,9.0,44,0.00,FEW,,0.00,WeatherDisplay:10.37,2014-09-22 10:44:00,
2014-09-22 13:00:00,79.5,55.1,29.99,SSW,201,5.0,10.0,43,0.00,FEW,,0.00,WeatherDisplay:10.37,2014-09-22 11:00:00,
2014-09-22 13:14:00,78.8,55.0,29.99,SSW,196,0.0,12.0,44,0.00,FEW,,0.00,WeatherDisplay:10.37,2014-09-22 11:14:00,
2014-09-22 13:30:00,78.6,54.9,29.99,South,180,5.0,5.0,44,0.00,FEW,,0.00,WeatherDisplay:10.37,2014-09-22 11:30:00,
2014-09-22 13:44:00,78.6,54.9,29.99,South,181,5.0,5.0,44,0.00,FEW,,0.00,WeatherDisplay:10.37,2014-09-22 11:44:00,
2014-09-22 14:00:00,78.6,54.9,29.98,South,181,5.0,5.0,44,0.00,FEW,,0.00,WeatherDisplay:10.37,2014-09-22 12:00:00,
2014-09-22 14:14:00,78.6,54.9,29.98,South,181,5.0,5.0,44,0.00,FEW,,0.00,WeatherDisplay:10.37,2014-09-22 12:14:00,
2014-09-22 14:30:00,78.6,54.9,29.97,South,181,5.0,5.0,44,0.00,FEW,,0.00,WeatherDisplay:10.37,2014-09-22 12:30:00,
2014-09-22 14:44:00,78.6,54.9,29.97,South,181,5.0,5.0,44,0.00,FEW,,0.00,WeatherDisplay:10.37,2014-09-22 12:44:00,
2014-09-22 15:00:00,78.6,54.9,29.97,South,181,5.0,5.0,44,0.00,SCT,,0.00,WeatherDisplay:10.37,2014-09-22 13:00:00,
2014-09-22 15:14:00,78.6,54.9,29.97,South,181,5.0,5.0,44,0.00,SCT,,0.00,WeatherDisplay:10.37,2014-09-22 13:14:00,
2014-09-22 15:30:00,78.6,55.5,29.97,South,190,6.0,16.0,45,0.00,SCT,,0.00,WeatherDisplay:10.37,2014-09-22 13:30:00,
2014-09-22 15:44:00,77.5,55.7,29.97,SSW,199,3.0,16.0,47,0.00,SCT,,0.00,WeatherDisplay:10.37,2014-09-22 13:44:00,
2014-09-22 16:00:00,77.7,55.3,29.97,SSW,196,1.0,14.0,46,0.00,BKN,,0.00,WeatherDisplay:10.37,2014-09-22 14:00:00,
2014-09-22 16:14:00,77.4,55.0,29.96,South,184,1.0,12.0,46,0.00,BKN,,0.00,WeatherDisplay:10.37,2014-09-22 14:14:00,
2014-09-22 16:30:00,76.7,55.5,29.96,SSW,203,5.0,12.0,48,0.00,BKN,,0.00,WeatherDisplay:10.37,2014-09-22 14:30:00,
2014-09-22 16:44:00,77.1,55.9,29.96,SSW,193,1.0,10.0,48,0.00,BKN,,0.00,WeatherDisplay:10.37,2014-09-22 14:44:00,
2014-09-22 17:00:00,78.9,56.3,29.95,SSW,192,1.0,13.0,46,0.00,FEW,,0.00,WeatherDisplay:10.37,2014-09-22 15:00:00,
2014-09-22 17:15:00,79.0,55.8,29.96,South,190,0.0,8.0,45,0.00,FEW,,0.00,WeatherDisplay:10.37,2014-09-22 15:15:00,
2014-09-22 17:30:00,79.3,56.7,29.96,SSW,194,1.0,8.0,46,0.00,FEW,,0.00,WeatherDisplay:10.37,2014-09-22 15:30:00,
2014-09-22 17:44:00,77.9,55.5,29.96,SSW,199,0.0,7.0,46,0.00,FEW,,0.00,WeatherDisplay:10.37,2014-09-22 15:44:00,
2014-09-22 18:00:00,78.6,56.7,29.95,South,191,0.0,9.0,47,0.00,SCT,,0.00,WeatherDisplay:10.37,2014-09-22 16:00:00,
2014-09-22 18:14:00,78.3,57.0,29.95,SSW,202,3.0,9.0,48,0.00,SCT,,0.00,WeatherDisplay:10.37,2014-09-22 16:14:00,
2014-09-22 18:30:00,77.5,55.7,29.95,SSW,202,0.0,9.0,47,0.00,SCT,,0.00,WeatherDisplay:10.37,2014-09-22 16:30:00,
2014-09-22 18:44:00,77.3,55.5,29.95,SSW,200,5.0,9.0,47,0.00,SCT,,0.00,WeatherDisplay:10.37,2014-09-22 16:44:00,
2014-09-22 19:00:00,76.3,54.6,29.95,SSW,200,1.0,11.0,47,0.00,-RA,,0.00,WeatherDisplay:10.37,2014-09-22 17:00:00,
2014-09-22 19:14:00,75.2,54.7,29.95,SSW,202,1.0,8.0,49,0.00,-RA,,0.00,WeatherDisplay:10.37,2014-09-22 17:14:00,
2014-09-22 19:30:00,74.1,54.8,29.96,SSW,202,1.0,8.0,51,0.00,-RA,,0.00,WeatherDisplay:10.37,2014-09-22 17:30:00,
2014-09-22 19:44:00,72.9,53.7,29.95,SSW,201,2.0,9.0,51,0.00,-RA,,0.00,WeatherDisplay:10.37,2014-09-22 17:44:00,
2014-09-22 20:00:00,71.2,53.7,29.96,SSW,202,0.0,11.0,54,0.00,BKN,,0.00,WeatherDisplay:10.37,2014-09-22 18:00:00,
2014-09-22 20:14:00,70.3,53.4,29.96,SSW,202,0.0,7.0,55,0.00,BKN,,0.00,WeatherDisplay:10.37,2014-09-22 18:14:00,
2014-09-22 20:29:00,69.4,53.5,29.96,SSW,202,0.0,0.0,57,0.00,BKN,,0.00,WeatherDisplay:10.37,2014-09-22 18:29:00,
2014-09-22 20:44:00,68.4,53.1,29.97,SSW,202,0.0,0.0,58,0.00,BKN,,0.00,WeatherDisplay:10.37,2014-09-22 18:44:00,